Time;durP1;ratioP1;P1;durP2;ratioP2;P2;SDS_P1;SDS_P2;PMS_P1;PMS_P2;Temp;Humidity;BMP_temperature;BMP_pressure;BME280_temperature;BME280_humidity;BME280_pressure;Samples;Min_cycle;Max_cycle;Signal;HPM_P1;HPM_P2
2022/10/23 00:01:27;;;;;;;13.35;7.05;;;;;;;14.50;81.88;101301.50;6186202;23;20009;-86
2022/10/23 00:03:59;;;;;;;10.30;6.30;;;;;;;14.44;82.70;101297.94;6211532;23;20367;-86
2022/10/23 00:06:26;;;;;;;11.23;6.30;;;;;;;14.39;82.59;101294.34;6187709;23;20005;-86
2022/10/23 00:08:51;;;;;;;11.25;6.55;;;;;;;14.25;83.12;101289.88;6187695;23;20043;-85
2022/10/23 00:11:22;;;;;;;10.85;6.65;;;;;;;14.19;83.67;101287.22;6186761;23;20009;-85
2022/10/23 00:13:48;;;;;;;13.85;6.65;;;;;;;14.07;84.38;101289.84;6186353;23;20009;-86
2022/10/23 00:16:14;;;;;;;9.98;6.13;;;;;;;14.07;84.56;101276.53;6209924;23;20017;-86
2022/10/23 00:18:40;;;;;;;12.73;6.55;;;;;;;14.13;84.61;101280.97;6187057;23;20111;-86
2022/10/23 00:21:11;;;;;;;13.90;6.53;;;;;;;14.11;84.45;101277.44;6185917;23;20494;-85
2022/10/23 00:23:39;;;;;;;14.80;6.05;;;;;;;14.20;84.06;101291.66;6187138;23;20001;-87
2022/10/23 00:26:06;;;;;;;12.10;5.72;;;;;;;14.23;83.93;101299.63;6187409;23;20036;-85
2022/10/23 00:28:35;;;;;;;12.93;6.15;;;;;;;14.19;84.40;101284.56;6187191;23;20005;-86
2022/10/23 00:31:02;;;;;;;9.85;5.68;;;;;;;14.23;84.46;101288.13;6186382;23;20005;-86
2022/10/23 00:33:27;;;;;;;10.27;5.47;;;;;;;14.21;84.74;101285.44;6185949;23;20087;-86
2022/10/23 00:35:56;;;;;;;12.52;6.03;;;;;;;14.18;84.09;101293.44;6186200;23;20047;-86
2022/10/23 00:38:21;;;;;;;11.27;6.05;;;;;;;14.07;84.60;101297.81;6161414;23;20088;-86
2022/10/23 00:40:47;;;;;;;11.68;5.53;;;;;;;14.00;85.17;101296.91;6186963;23;20028;-86
2022/10/23 00:43:26;;;;;;;11.98;5.70;;;;;;;13.95;85.37;101293.31;6187227;23;20412;-86
2022/10/23 00:45:51;;;;;;;12.98;5.60;;;;;;;13.96;85.67;101287.16;6186001;23;20005;-86
2022/10/23 00:48:17;;;;;;;12.60;5.55;;;;;;;13.95;85.70;101277.38;6160685;23;20312;-86
2022/10/23 00:50:45;;;;;;;11.10;5.50;;;;;;;14.02;85.54;101271.22;6161815;23;20331;-86
2022/10/23 00:53:11;;;;;;;13.30;5.75;;;;;;;14.10;85.56;101283.66;6161742;23;20376;-86
2022/10/23 00:55:45;;;;;;;12.35;5.50;;;;;;;14.11;85.39;101283.66;6187356;23;20324;-87
2022/10/23 00:58:15;;;;;;;14.32;5.32;;;;;;;14.06;85.01;101282.75;6160912;23;20017;-86
2022/10/23 01:00:52;;;;;;;15.38;5.57;;;;;;;14.06;85.79;101289.84;6186929;23;20080;-86
2022/10/23 01:03:27;;;;;;;18.23;5.45;;;;;;;14.03;85.62;101283.63;6186894;23;20009;-86
2022/10/23 01:05:52;;;;;;;10.48;5.22;;;;;;;14.10;85.90;101288.97;6162549;23;20041;-86
2022/10/23 01:08:30;;;;;;;12.98;5.72;;;;;;;14.10;85.62;101281.00;6186909;23;20059;-86
2022/10/23 01:11:09;;;;;;;12.48;5.90;;;;;;;14.09;86.17;101279.19;6187254;23;20005;-86
2022/10/23 01:13:50;;;;;;;20.02;5.75;;;;;;;14.09;86.08;101273.88;6187052;23;20005;-86
2022/10/23 01:16:22;;;;;;;13.73;5.38;;;;;;;14.09;85.82;101276.53;6185825;23;20009;-86
2022/10/23 01:19:28;;;;;;;14.07;5.50;;;;;;;14.14;85.20;101275.69;6185681;23;20015;-86
2022/10/23 01:22:04;;;;;;;11.32;5.43;;;;;;;14.13;85.70;101265.94;6132554;23;20040;-86
2022/10/23 01:25:25;;;;;;;13.20;4.97;;;;;;;14.17;85.32;101269.47;6187723;23;20004;-86
2022/10/23 01:27:58;;;;;;;13.57;5.40;;;;;;;14.03;85.63;101277.41;6158404;23;20012;-86
2022/10/23 01:30:23;;;;;;;12.90;5.63;;;;;;;13.92;86.21;101269.44;6186971;23;20005;-86
2022/10/23 01:33:19;;;;;;;12.77;5.50;;;;;;;13.87;86.30;101259.63;6186381;23;20020;-86
2022/10/23 01:36:00;;;;;;;10.50;5.00;;;;;;;13.92;86.22;101253.47;6166428;23;20013;-86
2022/10/23 01:38:51;;;;;;;10.88;5.55;;;;;;;13.99;86.37;101249.94;6186398;23;20001;-86
2022/10/23 01:41:29;;;;;;;10.95;5.35;;;;;;;14.00;86.50;101259.72;6186821;23;20463;-86
2022/10/23 01:44:03;;;;;;;13.27;5.40;;;;;;;14.00;86.30;101254.41;6185542;23;20009;-86
2022/10/23 01:46:30;;;;;;;9.65;5.13;;;;;;;13.99;86.27;101243.75;6186769;23;20088;-86
2022/10/23 01:48:58;;;;;;;15.85;5.47;;;;;;;14.02;86.68;101242.00;6209597;23;20436;-86
2022/10/23 01:51:27;;;;;;;11.02;5.20;;;;;;;14.03;86.38;101241.09;6185007;23;20043;-86
2022/10/23 01:54:06;;;;;;;12.40;5.13;;;;;;;14.06;86.34;101234.91;6185287;23;20079;-86
2022/10/23 01:56:33;;;;;;;10.48;5.53;;;;;;;13.96;86.02;101219.81;6186322;23;20009;-86
2022/10/23 01:59:03;;;;;;;13.48;5.55;;;;;;;14.03;85.83;101232.25;6184886;23;20032;-85
2022/10/23 02:01:31;;;;;;;11.95;5.43;;;;;;;14.00;85.99;101230.47;6186461;23;20440;-85
2022/10/23 02:04:01;;;;;;;16.90;5.13;;;;;;;13.99;86.11;101225.16;6184599;23;20419;-85
2022/10/23 02:06:27;;;;;;;10.50;4.85;;;;;;;13.99;86.22;101230.47;6186202;23;20028;-85
2022/10/23 02:08:55;;;;;;;12.35;4.78;;;;;;;14.03;86.07;101227.81;6186577;23;20009;-85
2022/10/23 02:11:21;;;;;;;12.20;4.97;;;;;;;14.06;85.82;101231.38;6184925;23;20012;-85
2022/10/23 02:14:03;;;;;;;14.50;5.22;;;;;;;14.08;85.88;101225.16;6185481;23;20063;-85
2022/10/23 02:16:44;;;;;;;11.00;4.85;;;;;;;13.99;85.92;101222.50;6186557;23;20088;-85
2022/10/23 02:19:30;;;;;;;12.32;5.00;;;;;;;13.93;86.28;101222.47;6186334;23;20419;-86
2022/10/23 02:22:11;;;;;;;8.80;4.90;;;;;;;13.89;86.31;101220.69;6186814;23;20005;-85
2022/10/23 02:24:58;;;;;;;9.40;4.80;;;;;;;13.88;86.45;101217.16;6186104;23;20008;-87
2022/10/23 02:27:45;;;;;;;12.13;5.07;;;;;;;13.88;86.68;101216.28;6186751;23;20005;-85
2022/10/23 02:30:14;;;;;;;12.40;5.18;;;;;;;13.85;86.77;101226.88;6187151;23;20430;-86
2022/10/23 02:32:43;;;;;;;10.75;5.03;;;;;;;13.84;86.92;101222.47;6209951;23;20016;-86
2022/10/23 02:35:09;;;;;;;11.93;5.15;;;;;;;13.82;87.04;101210.94;6186266;23;20005;-86
2022/10/23 02:37:35;;;;;;;15.15;5.10;;;;;;;13.79;87.25;101203.84;6185810;23;20089;-85
2022/10/23 02:40:02;;;;;;;9.88;5.05;;;;;;;13.82;87.14;101201.19;6184606;23;20416;-85
2022/10/23 02:43:09;;;;;;;13.98;5.10;;;;;;;13.84;86.84;101202.09;6185027;23;20487;-85
2022/10/23 02:45:54;;;;;;;11.30;5.50;;;;;;;13.75;87.16;101170.19;6095678;23;20321;-85
2022/10/23 02:48:24;;;;;;;12.13;4.97;;;;;;;13.81;87.17;101177.28;6181125;23;20009;-86
2022/10/23 02:51:01;;;;;;;7.93;4.93;;;;;;;13.83;87.22;101172.84;6186086;23;20332;-85
2022/10/23 02:53:40;;;;;;;12.18;5.15;;;;;;;13.73;87.22;101154.22;6184956;23;20428;-85
2022/10/23 02:56:21;;;;;;;14.38;5.55;;;;;;;13.85;87.08;101155.16;6184311;23;20001;-87
2022/10/23 02:58:58;;;;;;;10.90;5.05;;;;;;;13.84;86.91;101154.28;6186547;23;20351;-85
2022/10/23 03:01:46;;;;;;;16.98;5.40;;;;;;;13.84;87.20;101145.44;6188327;23;20001;-86
2022/10/23 03:04:13;;;;;;;12.27;5.28;;;;;;;13.80;87.22;101127.72;6186989;23;20005;-85
2022/10/23 03:06:39;;;;;;;14.80;5.80;;;;;;;13.80;87.28;101133.91;6161944;23;20009;-86
2022/10/23 03:09:07;;;;;;;11.70;5.72;;;;;;;13.81;87.73;101135.66;6161994;23;20016;-85
2022/10/23 03:11:32;;;;;;;13.40;5.35;;;;;;;13.81;87.30;101135.66;6162384;23;20088;-85
2022/10/23 03:13:58;;;;;;;12.60;5.45;;;;;;;13.80;87.65;101123.28;6188244;23;20415;-85
2022/10/23 03:16:23;;;;;;;15.55;5.68;;;;;;;13.79;87.67;101134.78;6187573;23;20044;-86
2022/10/23 03:18:49;;;;;;;12.63;5.82;;;;;;;13.78;87.69;101131.22;6188038;23;20332;-86
2022/10/23 03:21:14;;;;;;;10.15;5.63;;;;;;;13.71;87.71;101110.88;6188080;23;20416;-86
2022/10/23 03:23:39;;;;;;;14.15;5.40;;;;;;;13.84;87.63;101119.75;6161722;23;20382;-86
2022/10/23 03:26:05;;;;;;;13.27;5.35;;;;;;;13.80;87.56;101110.00;6186023;23;20016;-85
2022/10/23 03:28:30;;;;;;;11.85;5.75;;;;;;;13.77;87.58;101116.19;6162486;23;20013;-85
2022/10/23 03:30:56;;;;;;;14.45;6.00;;;;;;;13.83;87.50;101117.06;6136706;23;20035;-85
2022/10/23 03:33:22;;;;;;;9.82;5.80;;;;;;;13.81;87.90;101116.19;6161470;23;20009;-85
2022/10/23 03:35:48;;;;;;;12.48;6.10;;;;;;;13.78;88.09;101112.63;6187662;23;20012;-85
2022/10/23 03:38:13;;;;;;;13.38;5.63;;;;;;;13.73;88.20;101102.88;6186138;23;20016;-85
2022/10/23 03:40:39;;;;;;;12.10;5.25;;;;;;;13.75;88.05;101102.03;6161506;23;20017;-86
2022/10/23 03:43:04;;;;;;;13.65;5.60;;;;;;;13.73;88.06;101102.88;6161849;23;20411;-85
2022/10/23 03:45:31;;;;;;;13.00;5.53;;;;;;;13.70;87.80;101101.13;6161573;23;20442;-85
2022/10/23 03:47:57;;;;;;;11.45;5.60;;;;;;;13.75;88.29;101101.16;6161621;23;20013;-85
2022/10/23 03:50:22;;;;;;;17.08;5.30;;;;;;;13.74;88.14;101102.00;6160948;23;20013;-85
2022/10/23 03:52:47;;;;;;;15.10;5.63;;;;;;;13.68;88.70;101088.72;6187654;23;20005;-85
2022/10/23 03:55:13;;;;;;;8.50;5.35;;;;;;;13.73;88.42;101097.59;6186733;23;20016;-85
2022/10/23 03:57:38;;;;;;;10.45;5.18;;;;;;;13.71;88.57;101091.41;6187933;23;20104;-86
2022/10/23 04:00:05;;;;;;;13.40;5.50;;;;;;;13.72;88.60;101088.72;6161091;23;20087;-85
2022/10/23 04:02:30;;;;;;;15.02;5.53;;;;;;;13.70;88.57;101084.28;6187104;23;20005;-85
2022/10/23 04:04:56;;;;;;;15.05;5.43;;;;;;;13.66;88.52;101070.16;6187957;23;20005;-85
2022/10/23 04:07:22;;;;;;;12.38;5.60;;;;;;;13.74;88.90;101083.41;6187500;23;20005;-85
2022/10/23 04:09:47;;;;;;;12.90;4.72;;;;;;;13.73;88.73;101071.91;6161461;23;20052;-86
2022/10/23 04:12:12;;;;;;;7.72;4.82;;;;;;;13.72;88.81;101062.16;6187196;23;20332;-85
2022/10/23 04:14:38;;;;;;;8.20;5.00;;;;;;;13.71;88.68;101051.56;6160890;23;20036;-86
2022/10/23 04:17:03;;;;;;;9.80;5.10;;;;;;;13.68;89.05;101055.09;6136470;23;20020;-85
2022/10/23 04:19:29;;;;;;;11.70;4.53;;;;;;;13.69;89.07;101051.53;6187006;23;20013;-85
2022/10/23 04:21:55;;;;;;;15.48;5.13;;;;;;;13.67;89.20;101052.44;6161837;23;20393;-86
2022/10/23 04:24:22;;;;;;;12.85;5.43;;;;;;;13.64;89.21;101048.00;6161307;23;20355;-86
2022/10/23 04:26:47;;;;;;;10.45;4.93;;;;;;;13.68;89.54;101060.41;6161144;23;20016;-86
2022/10/23 04:29:13;;;;;;;12.18;4.95;;;;;;;13.68;89.32;101062.16;6187393;23;20009;-86
2022/10/23 04:31:38;;;;;;;11.98;4.60;;;;;;;13.70;89.50;101063.03;6187396;23;20036;-86
2022/10/23 04:34:04;;;;;;;14.80;4.70;;;;;;;13.66;89.70;101061.25;6161121;23;20012;-86
2022/10/23 04:36:29;;;;;;;10.90;4.97;;;;;;;13.61;90.03;101058.59;6147844;23;20329;-85
2022/10/23 04:38:55;;;;;;;12.00;5.18;;;;;;;13.61;90.03;101055.06;6185996;23;20100;-86
2022/10/23 04:41:20;;;;;;;11.57;4.63;;;;;;;13.65;90.14;101062.16;6187339;23;20091;-85
2022/10/23 04:43:45;;;;;;;13.00;4.88;;;;;;;13.62;89.91;101060.41;6186828;23;20051;-85
2022/10/23 04:46:11;;;;;;;8.27;4.38;;;;;;;13.61;89.96;101055.94;6185687;23;20012;-85
2022/10/23 04:48:36;;;;;;;11.70;4.72;;;;;;;13.60;90.00;101062.16;6160908;23;20017;-87
2022/10/23 04:51:03;;;;;;;12.82;4.50;;;;;;;13.62;90.30;101056.84;6185236;23;20084;-85
2022/10/23 04:53:29;;;;;;;9.52;3.95;;;;;;;13.65;89.53;101052.41;6186943;23;20005;-85
2022/10/23 04:55:57;;;;;;;10.75;4.53;;;;;;;13.67;90.30;101049.78;6185513;23;20096;-85
2022/10/23 04:58:26;;;;;;;12.30;4.60;;;;;;;13.67;89.94;101047.13;6186664;23;20017;-85
2022/10/23 05:00:51;;;;;;;8.10;4.80;;;;;;;13.65;89.92;101044.44;6187362;23;20361;-85
2022/10/23 05:03:17;;;;;;;9.68;4.35;;;;;;;13.60;90.36;101042.69;6187142;23;20024;-86
2022/10/23 05:05:43;;;;;;;11.85;4.50;;;;;;;13.57;91.07;101038.25;6185252;23;20309;-86
2022/10/23 05:08:09;;;;;;;12.32;4.60;;;;;;;13.55;90.55;101042.69;6187002;23;20009;-86
2022/10/23 05:10:38;;;;;;;10.02;4.40;;;;;;;13.54;91.03;101038.25;6185436;23;20017;-85
2022/10/23 05:13:04;;;;;;;9.48;4.63;;;;;;;13.50;91.16;101032.06;6187015;23;20013;-86
2022/10/23 05:15:29;;;;;;;11.38;4.18;;;;;;;13.51;91.08;101041.78;6186972;23;20047;-86
2022/10/23 05:18:01;;;;;;;9.60;4.20;;;;;;;13.50;91.56;101033.81;6186582;23;20368;-86
2022/10/23 05:20:31;;;;;;;10.17;4.20;;;;;;;13.50;91.26;101029.41;6184951;23;20031;-86
2022/10/23 05:22:59;;;;;;;10.95;5.05;;;;;;;13.47;91.51;101016.09;6184953;23;20009;-86
2022/10/23 05:25:25;;;;;;;10.32;4.57;;;;;;;13.51;91.37;101022.31;6186847;23;20084;-86
2022/10/23 05:27:51;;;;;;;8.18;3.80;;;;;;;13.52;91.41;101021.41;6160399;23;20047;-86
2022/10/23 05:30:25;;;;;;;10.15;4.07;;;;;;;13.52;91.68;101024.06;6187131;23;20009;-87
2022/10/23 05:32:50;;;;;;;10.32;4.25;;;;;;;13.54;91.42;101019.66;6185376;23;20427;-87
2022/10/23 05:35:19;;;;;;;18.35;4.70;;;;;;;13.52;91.47;101018.78;6186498;23;20001;-87
2022/10/23 05:37:47;;;;;;;10.32;4.25;;;;;;;13.49;91.41;101014.34;6186818;23;20008;-86
2022/10/23 05:40:12;;;;;;;12.73;4.57;;;;;;;13.53;91.82;101010.81;6186610;23;20080;-87
2022/10/23 05:42:40;;;;;;;8.95;4.03;;;;;;;13.56;91.83;101019.66;6186641;23;20088;-87
2022/10/23 05:45:06;;;;;;;8.30;4.18;;;;;;;13.55;91.75;101016.13;6186717;23;20005;-86
2022/10/23 05:47:31;;;;;;;7.57;4.00;;;;;;;13.55;91.57;101016.13;6185782;23;20084;-86
2022/10/23 05:49:57;;;;;;;12.43;4.40;;;;;;;13.50;91.68;101010.81;6186619;23;20436;-86
2022/10/23 05:52:23;;;;;;;10.50;3.80;;;;;;;13.52;91.56;101006.38;6161050;23;20012;-86
2022/10/23 05:54:51;;;;;;;7.25;4.20;;;;;;;13.51;91.83;101007.25;6186661;23;20005;-86
2022/10/23 05:57:19;;;;;;;10.98;4.10;;;;;;;13.54;91.75;101006.41;6186138;23;20007;-86
2022/10/23 05:59:45;;;;;;;6.65;3.92;;;;;;;13.50;91.73;100997.53;6111551;23;20009;-86
2022/10/23 06:02:10;;;;;;;9.52;3.97;;;;;;;13.55;91.81;100999.31;6136046;23;20009;-86
2022/10/23 06:04:36;;;;;;;10.38;4.40;;;;;;;13.50;91.95;100992.22;6159712;23;20083;-89
2022/10/23 06:07:03;;;;;;;8.32;4.28;;;;;;;13.53;91.72;100993.97;6185562;23;20017;-86
2022/10/23 06:09:29;;;;;;;8.50;4.20;;;;;;;13.58;91.79;100996.66;6184948;23;20511;-86
2022/10/23 06:11:54;;;;;;;7.82;3.97;;;;;;;13.58;91.78;100989.59;6185833;23;20331;-85
2022/10/23 06:14:19;;;;;;;12.05;4.10;;;;;;;13.56;91.69;100991.34;6159857;23;20439;-86
2022/10/23 06:16:45;;;;;;;11.07;4.28;;;;;;;13.49;92.10;100977.19;6160456;23;20009;-86
2022/10/23 06:19:12;;;;;;;9.75;4.40;;;;;;;13.54;92.13;100979.84;6160342;23;20013;-86
2022/10/23 06:21:38;;;;;;;12.07;4.45;;;;;;;13.55;92.20;100984.25;6186043;23;20075;-87
2022/10/23 06:24:05;;;;;;;10.52;3.97;;;;;;;13.54;92.16;100985.16;6186010;23;20020;-86
2022/10/23 06:26:31;;;;;;;7.88;4.00;;;;;;;13.50;92.50;100989.56;6185854;23;20336;-86
2022/10/23 06:28:57;;;;;;;8.93;3.92;;;;;;;13.51;92.55;100982.50;6135433;23;20019;-86
2022/10/23 06:31:27;;;;;;;9.82;4.28;;;;;;;13.51;93.05;100985.16;6186950;23;20009;-86
2022/10/23 06:33:56;;;;;;;12.95;4.20;;;;;;;13.53;92.55;100978.06;6135814;23;20017;-86
2022/10/23 06:36:22;;;;;;;10.65;4.40;;;;;;;13.57;92.62;100970.97;6170451;23;20509;-86
2022/10/23 06:38:48;;;;;;;13.70;4.40;;;;;;;13.58;93.01;100973.66;6186052;23;20001;-86
2022/10/23 06:41:16;;;;;;;10.57;4.18;;;;;;;13.58;92.93;100975.44;6185015;23;20009;-86
2022/10/23 06:43:42;;;;;;;11.43;4.47;;;;;;;13.57;92.85;100969.22;6185733;23;20005;-86
2022/10/23 06:46:08;;;;;;;14.25;4.28;;;;;;;13.57;93.05;100958.59;6187023;23;20012;-86
2022/10/23 06:48:34;;;;;;;10.40;4.60;;;;;;;13.57;92.92;100947.97;6186369;23;20004;-86
2022/10/23 06:51:04;;;;;;;9.02;4.15;;;;;;;13.56;93.18;100954.16;6159592;23;20028;-85
2022/10/23 06:53:29;;;;;;;8.15;4.07;;;;;;;13.52;93.17;100942.66;6185084;23;20009;-85
2022/10/23 06:55:59;;;;;;;9.15;5.00;;;;;;;13.57;93.06;100950.63;6186273;23;20471;-86
2022/10/23 06:58:25;;;;;;;7.50;4.13;;;;;;;13.59;92.96;100955.94;6184443;23;20005;-86
2022/10/23 07:00:50;;;;;;;10.23;4.15;;;;;;;13.51;93.39;100934.69;6184775;23;20016;-86
2022/10/23 07:03:16;;;;;;;11.23;4.70;;;;;;;13.60;93.39;100947.09;6186869;23;20009;-85
2022/10/23 07:05:43;;;;;;;11.00;4.47;;;;;;;13.59;93.47;100940.91;6209122;23;20009;-86
2022/10/23 07:08:09;;;;;;;8.90;4.22;;;;;;;13.63;93.72;100953.28;6184557;23;20016;-87
2022/10/23 07:10:35;;;;;;;8.80;4.38;;;;;;;13.66;93.77;100947.09;6185031;23;20013;-85
2022/10/23 07:13:02;;;;;;;10.40;4.47;;;;;;;13.68;93.53;100945.31;6185772;23;20013;-86
2022/10/23 07:15:28;;;;;;;8.88;4.38;;;;;;;13.70;93.70;100955.06;6186544;23;20012;-85
2022/10/23 07:17:54;;;;;;;10.70;4.60;;;;;;;13.72;93.70;100952.41;6184714;23;20087;-85
2022/10/23 07:20:20;;;;;;;10.98;4.72;;;;;;;13.70;93.39;100941.81;6159572;23;20432;-85
2022/10/23 07:22:56;;;;;;;12.80;5.32;;;;;;;13.71;93.86;100935.59;6184674;23;20015;-86
2022/10/23 07:25:23;;;;;;;10.52;4.63;;;;;;;13.71;94.00;100932.94;6186013;23;20446;-85
2022/10/23 07:27:50;;;;;;;15.43;4.95;;;;;;;13.77;93.92;100935.56;6186129;23;20108;-85
2022/10/23 07:30:16;;;;;;;10.18;4.47;;;;;;;13.77;93.75;100932.03;6185710;23;20004;-85
2022/10/23 07:32:42;;;;;;;9.82;4.57;;;;;;;13.76;93.93;100933.81;6209556;23;20067;-85
2022/10/23 07:35:09;;;;;;;14.07;4.65;;;;;;;13.82;93.73;100932.03;6186240;23;20084;-86
2022/10/23 07:37:35;;;;;;;11.73;4.60;;;;;;;13.83;93.59;100928.47;6185955;23;20009;-86
2022/10/23 07:40:01;;;;;;;11.57;4.97;;;;;;;13.83;93.60;100921.38;6159662;23;20083;-86
2022/10/23 07:42:26;;;;;;;10.95;5.10;;;;;;;13.84;93.81;100925.84;6185678;23;20013;-86
2022/10/23 07:44:52;;;;;;;14.55;5.20;;;;;;;13.89;93.80;100921.41;6185741;23;20424;-85
2022/10/23 07:47:20;;;;;;;12.68;5.18;;;;;;;13.91;93.83;100924.03;6185757;23;20096;-86
2022/10/23 07:49:46;;;;;;;9.25;4.70;;;;;;;13.88;93.65;100911.66;6187524;23;20013;-86
2022/10/23 07:52:12;;;;;;;10.63;5.45;;;;;;;13.95;93.77;100915.19;6137270;23;20009;-86
2022/10/23 07:54:37;;;;;;;12.73;5.13;;;;;;;13.98;93.50;100912.53;6187724;23;20012;-86
2022/10/23 07:57:03;;;;;;;9.00;4.75;;;;;;;14.00;93.51;100914.31;6185728;23;20020;-85
2022/10/23 07:59:28;;;;;;;14.50;4.93;;;;;;;14.03;93.55;100924.03;6187205;23;20009;-85
2022/10/23 08:01:55;;;;;;;12.20;5.05;;;;;;;14.01;93.76;100915.19;6161471;23;20036;-85
2022/10/23 08:04:21;;;;;;;10.73;5.10;;;;;;;14.01;93.50;100910.75;6187628;23;20009;-86
2022/10/23 08:06:47;;;;;;;9.02;4.93;;;;;;;14.07;93.83;100917.81;6185969;23;20013;-85
2022/10/23 08:09:12;;;;;;;10.55;4.85;;;;;;;14.11;94.03;100922.25;6187496;23;20013;-85
2022/10/23 08:11:41;;;;;;;9.07;4.97;;;;;;;14.16;93.68;100912.47;6187802;23;20028;-86
2022/10/23 08:14:07;;;;;;;8.93;4.88;;;;;;;14.21;93.82;100909.78;6185921;23;20009;-85
2022/10/23 08:16:34;;;;;;;9.40;5.03;;;;;;;14.23;93.32;100908.91;6187456;23;20009;-85
2022/10/23 08:19:00;;;;;;;12.38;4.60;;;;;;;14.25;93.37;100892.94;6185694;23;20432;-85
2022/10/23 08:21:26;;;;;;;9.68;5.22;;;;;;;14.32;93.44;100912.44;6187539;23;20016;-85
2022/10/23 08:23:58;;;;;;;8.40;4.57;;;;;;;14.37;93.62;100911.53;6187361;23;20012;-85
2022/10/23 08:26:25;;;;;;;11.57;4.93;;;;;;;14.39;93.33;100904.44;6187433;23;20109;-85
2022/10/23 08:28:51;;;;;;;9.90;4.97;;;;;;;14.43;93.04;100906.19;6187670;23;20060;-84
2022/10/23 08:31:19;;;;;;;15.80;5.38;;;;;;;14.44;93.31;100897.31;6186931;23;20016;-84
2022/10/23 08:33:45;;;;;;;8.95;4.85;;;;;;;14.48;92.67;100893.78;6187359;23;20023;-83
2022/10/23 08:36:25;;;;;;;11.82;5.00;;;;;;;14.54;93.06;100892.88;6187162;23;20040;-84
2022/10/23 08:38:52;;;;;;;11.77;4.63;;;;;;;14.60;93.09;100895.50;6187029;23;20336;-84
2022/10/23 08:41:42;;;;;;;12.35;4.32;;;;;;;14.61;92.64;100886.66;6187220;23;20087;-84
2022/10/23 08:44:28;;;;;;;14.07;4.72;;;;;;;14.62;92.45;100887.53;6147636;23;20013;-84
2022/10/23 08:47:02;;;;;;;11.00;4.70;;;;;;;14.53;92.43;100860.09;6186834;23;20055;-84
2022/10/23 08:49:55;;;;;;;11.32;4.60;;;;;;;14.60;92.83;100870.69;6185833;23;20036;-83
2022/10/23 08:52:34;;;;;;;13.77;5.00;;;;;;;14.64;92.83;100870.66;6187609;23;20016;-84
2022/10/23 08:55:16;;;;;;;7.85;4.47;;;;;;;14.69;92.48;100889.28;6186159;23;20012;-83
2022/10/23 08:57:54;;;;;;;;;;;;;;;14.73;92.28;100872.38;6187930;23;20060;-83
2022/10/23 09:00:19;;;;;;;10.55;4.35;;;;;;;14.71;91.98;100863.53;6187495;23;19913;-84
2022/10/23 09:02:52;;;;;;;7.95;4.68;;;;;;;14.76;92.19;100859.06;6186767;23;20123;-84
2022/10/23 09:05:33;;;;;;;15.50;4.65;;;;;;;14.83;92.03;100859.91;6160271;23;20063;-84
2022/10/23 09:08:29;;;;;;;11.40;4.40;;;;;;;14.88;91.68;100866.97;6187730;23;20008;-85
2022/10/23 09:10:54;;;;;;;10.77;4.50;;;;;;;14.90;91.60;100857.22;6187378;23;20001;-85
2022/10/23 09:13:24;;;;;;;9.95;4.03;;;;;;;14.93;90.83;100846.53;6187297;23;20058;-84
2022/10/23 09:16:02;;;;;;;8.90;4.38;;;;;;;14.94;90.83;100829.66;6186906;23;20009;-84
2022/10/23 09:18:30;;;;;;;11.00;4.68;;;;;;;14.99;90.81;100848.28;6184839;23;20336;-82
2022/10/23 09:20:56;;;;;;;12.93;4.80;;;;;;;15.01;90.57;100843.81;6160414;23;20407;-86
2022/10/23 09:23:23;;;;;;;11.25;4.47;;;;;;;15.08;89.99;100842.00;6187100;23;20084;-84
2022/10/23 09:25:55;;;;;;;8.63;4.20;;;;;;;15.07;90.44;100827.78;6185677;23;20001;-85
2022/10/23 09:28:35;;;;;;;8.77;4.40;;;;;;;15.09;89.75;100822.47;6186943;23;20029;-85
2022/10/23 09:31:08;;;;;;;9.45;4.65;;;;;;;15.12;89.84;100823.34;6187531;23;20032;-84
2022/10/23 09:33:35;;;;;;;10.45;4.15;;;;;;;15.17;89.54;100832.16;6187411;23;20420;-84
2022/10/23 09:36:05;;;;;;;9.75;4.53;;;;;;;15.19;89.67;100822.38;6186701;23;20020;-85
2022/10/23 09:38:36;;;;;;;14.05;4.50;;;;;;;15.22;89.52;100817.03;6187984;23;20534;-85
2022/10/23 09:41:29;;;;;;;8.80;4.40;;;;;;;15.25;89.38;100810.81;6186859;23;20011;-85
2022/10/23 09:44:06;;;;;;;9.25;4.15;;;;;;;15.22;89.42;100787.75;6152103;23;20090;-86
2022/10/23 09:46:40;;;;;;;11.77;4.22;;;;;;;15.30;89.31;100801.00;6186391;23;20416;-86
2022/10/23 09:49:21;;;;;;;11.80;4.30;;;;;;;15.31;89.01;100800.09;6186506;23;20001;-86
2022/10/23 09:52:04;;;;;;;14.23;4.20;;;;;;;15.34;89.13;100802.72;6186481;23;20442;-85
2022/10/23 09:54:32;;;;;;;12.35;4.30;;;;;;;15.34;88.75;100799.19;6188068;23;20025;-84
2022/10/23 09:57:05;;;;;;;7.47;3.90;;;;;;;15.38;88.69;100798.25;6187206;23;20097;-84
2022/10/23 09:59:32;;;;;;;11.80;4.00;;;;;;;15.39;89.06;100802.69;6187109;23;20005;-84
2022/10/23 10:02:02;;;;;;;6.20;3.65;;;;;;;15.37;88.89;100778.72;6136472;23;20005;-85
2022/10/23 10:04:36;;;;;;;10.27;4.20;;;;;;;15.48;88.79;100781.28;6187671;23;20016;-84
2022/10/23 10:07:05;;;;;;;9.55;4.05;;;;;;;15.50;88.85;100771.47;6187046;23;20420;-84
2022/10/23 10:09:31;;;;;;;7.80;4.20;;;;;;;15.54;88.32;100762.56;6186732;23;20100;-84
2022/10/23 10:12:16;;;;;;;10.00;4.07;;;;;;;15.58;88.13;100766.09;6160292;23;20428;-84
2022/10/23 10:15:31;;;;;;;10.25;3.75;;;;;;;15.60;87.88;100759.84;6135503;23;20009;-84
2022/10/23 10:18:32;;;;;;;7.65;3.85;;;;;;;15.64;87.75;100752.72;6165360;23;20015;-84
2022/10/23 10:21:16;;;;;;;11.85;3.83;;;;;;;15.66;87.78;100748.25;6186550;23;20008;-84
2022/10/23 10:23:59;;;;;;;7.53;3.90;;;;;;;15.71;87.97;100743.75;6186745;23;20005;-85
2022/10/23 10:26:43;;;;;;;8.35;3.63;;;;;;;15.70;87.98;100728.69;6184902;23;20005;-84
2022/10/23 10:29:30;;;;;;;9.85;3.70;;;;;;;15.75;87.81;100733.03;6185181;23;20055;-84
2022/10/23 10:32:32;;;;;;;9.52;3.67;;;;;;;15.78;87.76;100733.00;6186661;23;20040;-85
2022/10/23 10:35:15;;;;;;;8.07;3.58;;;;;;;15.81;87.36;100737.44;6185117;23;20005;-84
2022/10/23 10:37:53;;;;;;;9.80;3.58;;;;;;;15.84;88.07;100728.50;6187452;23;20017;-85
2022/10/23 10:40:21;;;;;;;13.80;4.00;;;;;;;15.91;87.70;100740.84;6184606;23;20084;-85
2022/10/23 10:43:34;;;;;;;6.60;3.67;;;;;;;15.98;87.22;100729.22;6184641;23;20063;-84
2022/10/23 10:46:21;;;;;;;7.10;3.80;;;;;;;16.04;86.97;100715.81;6160892;23;20104;-84
2022/10/23 10:49:19;;;;;;;8.65;3.80;;;;;;;16.18;87.03;100728.94;6186713;23;20005;-84
2022/10/23 10:52:06;;;;;;;13.48;3.88;;;;;;;16.28;86.06;100720.78;6187202;23;20076;-84
2022/10/23 10:54:37;;;;;;;13.63;3.80;;;;;;;16.41;85.25;100712.63;6188342;23;20005;-86
2022/10/23 10:57:14;;;;;;;9.25;3.47;;;;;;;16.48;84.26;100709.81;6186525;23;20012;-85
2022/10/23 10:59:44;;;;;;;5.95;3.70;;;;;;;16.59;83.56;100690.09;6186786;23;20009;-85
2022/10/23 11:02:38;;;;;;;7.97;3.72;;;;;;;16.74;84.06;100687.19;6186143;23;20048;-85
2022/10/23 11:05:34;;;;;;;10.57;3.60;;;;;;;16.93;83.37;100693.09;6160131;23;20375;-85
2022/10/23 11:08:26;;;;;;;9.90;3.70;;;;;;;17.05;82.75;100681.34;6186527;23;20004;-85
2022/10/23 11:10:58;;;;;;;7.78;3.75;;;;;;;17.13;81.71;100695.38;6186887;23;20013;-85
2022/10/23 11:13:33;;;;;;;11.02;3.80;;;;;;;17.22;81.47;100692.56;6185903;23;20060;-85
2022/10/23 11:16:29;;;;;;;10.95;3.70;;;;;;;17.26;81.97;100681.81;6186755;23;20005;-85
2022/10/23 11:19:06;;;;;;;7.60;3.38;;;;;;;17.32;81.13;100672.78;6184765;23;20087;-85
2022/10/23 11:21:36;;;;;;;11.18;3.50;;;;;;;17.35;80.88;100671.84;6187867;23;20032;-84
2022/10/23 11:24:38;;;;;;;12.95;3.30;;;;;;;17.42;80.56;100677.00;6187823;23;20009;-84
2022/10/23 11:27:28;;;;;;;9.80;3.53;;;;;;;17.56;81.22;100671.41;6188650;23;20009;-85
2022/10/23 11:30:08;;;;;;;9.32;3.40;;;;;;;17.65;79.29;100665.88;6188442;23;20005;-84
2022/10/23 11:33:04;;;;;;;9.38;3.60;;;;;;;17.76;80.52;100673.69;6137761;23;20029;-84
2022/10/23 11:35:36;;;;;;;10.45;3.50;;;;;;;17.82;79.13;100660.19;6187992;23;20005;-84
2022/10/23 11:38:22;;;;;;;13.05;3.70;;;;;;;17.87;79.27;100644.94;6187983;23;20009;-84
2022/10/23 11:40:52;;;;;;;11.13;3.63;;;;;;;17.99;78.71;100635.75;6187826;23;20012;-84